sensor_id;sensor_type;location;lat;lon;timestamp;P1;durP1;ratioP1;P2;durP2;ratioP2
24485;SDS011;13449;49.374;8.584;2023-07-09T00:00:59;5.20;;;3.60;;
24485;SDS011;13449;49.374;8.584;2023-07-09T00:03:26;6.20;;;3.28;;
24485;SDS011;13449;49.374;8.584;2023-07-09T00:05:52;5.28;;;3.60;;
24485;SDS011;13449;49.374;8.584;2023-07-09T00:10:57;5.72;;;3.17;;
24485;SDS011;13449;49.374;8.584;2023-07-09T00:13:25;8.05;;;3.63;;
24485;SDS011;13449;49.374;8.584;2023-07-09T00:15:55;11.07;;;3.33;;
24485;SDS011;13449;49.374;8.584;2023-07-09T00:18:27;10.13;;;3.47;;
24485;SDS011;13449;49.374;8.584;2023-07-09T00:20:54;5.72;;;3.03;;
24485;SDS011;13449;49.374;8.584;2023-07-09T00:23:23;12.13;;;4.05;;
24485;SDS011;13449;49.374;8.584;2023-07-09T00:25:53;4.82;;;3.20;;
24485;SDS011;13449;49.374;8.584;2023-07-09T00:28:20;5.43;;;3.20;;
24485;SDS011;13449;49.374;8.584;2023-07-09T00:30:46;5.82;;;3.22;;
24485;SDS011;13449;49.374;8.584;2023-07-09T00:33:15;8.30;;;3.22;;
24485;SDS011;13449;49.374;8.584;2023-07-09T00:35:45;9.73;;;3.42;;
24485;SDS011;13449;49.374;8.584;2023-07-09T00:38:13;4.00;;;2.60;;
24485;SDS011;13449;49.374;8.584;2023-07-09T00:43:27;4.57;;;2.78;;
24485;SDS011;13449;49.374;8.584;2023-07-09T00:49:04;6.30;;;3.40;;
24485;SDS011;13449;49.374;8.584;2023-07-09T00:51:34;6.85;;;3.63;;
24485;SDS011;13449;49.374;8.584;2023-07-09T00:54:11;9.55;;;3.60;;
24485;SDS011;13449;49.374;8.584;2023-07-09T00:56:45;8.60;;;3.92;;
24485;SDS011;13449;49.374;8.584;2023-07-09T00:59:17;16.55;;;4.20;;
24485;SDS011;13449;49.374;8.584;2023-07-09T01:01:50;9.35;;;3.85;;
24485;SDS011;13449;49.374;8.584;2023-07-09T01:04:18;6.22;;;3.78;;
24485;SDS011;13449;49.374;8.584;2023-07-09T01:06:49;9.93;;;4.57;;
24485;SDS011;13449;49.374;8.584;2023-07-09T01:09:18;8.70;;;3.35;;
24485;SDS011;13449;49.374;8.584;2023-07-09T01:11:48;7.28;;;3.17;;
24485;SDS011;13449;49.374;8.584;2023-07-09T01:16:52;7.78;;;3.30;;
24485;SDS011;13449;49.374;8.584;2023-07-09T01:19:24;4.15;;;3.33;;
24485;SDS011;13449;49.374;8.584;2023-07-09T01:22:00;5.95;;;4.32;;
24485;SDS011;13449;49.374;8.584;2023-07-09T01:27:41;4.65;;;2.88;;
24485;SDS011;13449;49.374;8.584;2023-07-09T01:30:11;10.05;;;3.03;;
24485;SDS011;13449;49.374;8.584;2023-07-09T01:32:43;8.02;;;3.53;;
24485;SDS011;13449;49.374;8.584;2023-07-09T01:35:13;5.88;;;3.00;;
24485;SDS011;13449;49.374;8.584;2023-07-09T01:37:41;3.80;;;3.33;;
24485;SDS011;13449;49.374;8.584;2023-07-09T01:40:10;8.80;;;3.47;;
24485;SDS011;13449;49.374;8.584;2023-07-09T01:42:56;9.32;;;2.53;;
24485;SDS011;13449;49.374;8.584;2023-07-09T01:45:28;3.83;;;2.38;;
24485;SDS011;13449;49.374;8.584;2023-07-09T01:48:09;2.75;;;2.25;;
24485;SDS011;13449;49.374;8.584;2023-07-09T01:50:40;3.95;;;2.80;;
24485;SDS011;13449;49.374;8.584;2023-07-09T01:53:12;7.57;;;3.60;;
24485;SDS011;13449;49.374;8.584;2023-07-09T01:55:42;6.90;;;3.30;;
24485;SDS011;13449;49.374;8.584;2023-07-09T01:58:10;7.63;;;3.72;;
24485;SDS011;13449;49.374;8.584;2023-07-09T02:00:37;6.00;;;4.05;;
24485;SDS011;13449;49.374;8.584;2023-07-09T02:03:06;7.55;;;4.03;;
24485;SDS011;13449;49.374;8.584;2023-07-09T02:05:33;6.45;;;4.00;;
24485;SDS011;13449;49.374;8.584;2023-07-09T02:07:59;5.88;;;3.30;;
24485;SDS011;13449;49.374;8.584;2023-07-09T02:10:26;7.22;;;3.70;;
24485;SDS011;13449;49.374;8.584;2023-07-09T02:12:52;9.32;;;3.65;;
24485;SDS011;13449;49.374;8.584;2023-07-09T02:15:19;7.20;;;3.17;;
24485;SDS011;13449;49.374;8.584;2023-07-09T02:17:46;3.95;;;3.55;;
24485;SDS011;13449;49.374;8.584;2023-07-09T02:20:15;6.25;;;3.78;;
24485;SDS011;13449;49.374;8.584;2023-07-09T02:22:45;5.68;;;3.15;;
24485;SDS011;13449;49.374;8.584;2023-07-09T02:25:14;6.63;;;4.43;;
24485;SDS011;13449;49.374;8.584;2023-07-09T02:27:43;5.82;;;3.58;;
24485;SDS011;13449;49.374;8.584;2023-07-09T02:30:10;9.88;;;4.20;;
24485;SDS011;13449;49.374;8.584;2023-07-09T02:32:37;3.97;;;3.03;;
24485;SDS011;13449;49.374;8.584;2023-07-09T02:35:04;7.38;;;4.10;;
24485;SDS011;13449;49.374;8.584;2023-07-09T02:37:31;7.03;;;3.47;;
24485;SDS011;13449;49.374;8.584;2023-07-09T02:40:02;14.55;;;4.18;;
24485;SDS011;13449;49.374;8.584;2023-07-09T02:42:30;7.07;;;2.92;;
24485;SDS011;13449;49.374;8.584;2023-07-09T02:44:56;5.80;;;3.70;;
24485;SDS011;13449;49.374;8.584;2023-07-09T02:47:23;4.97;;;2.95;;
24485;SDS011;13449;49.374;8.584;2023-07-09T02:49:52;9.27;;;3.78;;
24485;SDS011;13449;49.374;8.584;2023-07-09T02:52:18;10.18;;;3.40;;
24485;SDS011;13449;49.374;8.584;2023-07-09T02:54:45;8.10;;;3.10;;
24485;SDS011;13449;49.374;8.584;2023-07-09T02:57:11;4.68;;;3.45;;
24485;SDS011;13449;49.374;8.584;2023-07-09T02:59:38;8.43;;;3.30;;
24485;SDS011;13449;49.374;8.584;2023-07-09T03:02:05;6.15;;;3.20;;
24485;SDS011;13449;49.374;8.584;2023-07-09T03:04:32;6.30;;;3.28;;
24485;SDS011;13449;49.374;8.584;2023-07-09T03:06:59;4.25;;;2.92;;
24485;SDS011;13449;49.374;8.584;2023-07-09T03:09:26;6.68;;;3.85;;
24485;SDS011;13449;49.374;8.584;2023-07-09T03:11:54;9.02;;;4.03;;
24485;SDS011;13449;49.374;8.584;2023-07-09T03:14:20;6.97;;;3.63;;
24485;SDS011;13449;49.374;8.584;2023-07-09T03:16:47;9.93;;;3.35;;
24485;SDS011;13449;49.374;8.584;2023-07-09T03:19:13;6.97;;;3.65;;
24485;SDS011;13449;49.374;8.584;2023-07-09T03:21:40;6.15;;;4.10;;
24485;SDS011;13449;49.374;8.584;2023-07-09T03:24:06;5.93;;;3.80;;
24485;SDS011;13449;49.374;8.584;2023-07-09T03:26:34;7.72;;;3.67;;
24485;SDS011;13449;49.374;8.584;2023-07-09T03:29:03;5.55;;;3.65;;
24485;SDS011;13449;49.374;8.584;2023-07-09T03:31:32;5.50;;;3.33;;
24485;SDS011;13449;49.374;8.584;2023-07-09T03:34:01;6.53;;;4.13;;
24485;SDS011;13449;49.374;8.584;2023-07-09T03:36:29;10.02;;;4.13;;
24485;SDS011;13449;49.374;8.584;2023-07-09T03:38:56;12.52;;;4.55;;
24485;SDS011;13449;49.374;8.584;2023-07-09T03:41:25;11.23;;;4.43;;
24485;SDS011;13449;49.374;8.584;2023-07-09T03:43:51;9.95;;;4.63;;
24485;SDS011;13449;49.374;8.584;2023-07-09T03:46:19;9.38;;;4.53;;
24485;SDS011;13449;49.374;8.584;2023-07-09T03:48:46;5.50;;;3.55;;
24485;SDS011;13449;49.374;8.584;2023-07-09T03:51:13;7.60;;;4.18;;
24485;SDS011;13449;49.374;8.584;2023-07-09T03:53:40;8.35;;;4.18;;
24485;SDS011;13449;49.374;8.584;2023-07-09T03:56:07;10.77;;;3.88;;
24485;SDS011;13449;49.374;8.584;2023-07-09T03:58:33;7.38;;;4.13;;
24485;SDS011;13449;49.374;8.584;2023-07-09T04:01:01;8.77;;;4.38;;
24485;SDS011;13449;49.374;8.584;2023-07-09T04:03:28;7.80;;;4.05;;
24485;SDS011;13449;49.374;8.584;2023-07-09T04:05:54;8.48;;;4.60;;
24485;SDS011;13449;49.374;8.584;2023-07-09T04:08:21;8.20;;;3.95;;
24485;SDS011;13449;49.374;8.584;2023-07-09T04:10:47;11.02;;;4.22;;
24485;SDS011;13449;49.374;8.584;2023-07-09T04:13:14;16.40;;;3.88;;
24485;SDS011;13449;49.374;8.584;2023-07-09T04:15:43;4.38;;;2.60;;
24485;SDS011;13449;49.374;8.584;2023-07-09T04:18:13;4.43;;;3.13;;
24485;SDS011;13449;49.374;8.584;2023-07-09T04:20:39;7.82;;;3.97;;
24485;SDS011;13449;49.374;8.584;2023-07-09T04:23:05;5.03;;;2.83;;
24485;SDS011;13449;49.374;8.584;2023-07-09T04:25:32;3.63;;;2.42;;
24485;SDS011;13449;49.374;8.584;2023-07-09T04:27:59;2.38;;;1.80;;
24485;SDS011;13449;49.374;8.584;2023-07-09T04:30:26;2.33;;;2.13;;
24485;SDS011;13449;49.374;8.584;2023-07-09T04:32:52;3.88;;;2.35;;
24485;SDS011;13449;49.374;8.584;2023-07-09T04:35:19;5.22;;;2.10;;
24485;SDS011;13449;49.374;8.584;2023-07-09T04:37:45;6.20;;;3.72;;
24485;SDS011;13449;49.374;8.584;2023-07-09T04:40:12;3.88;;;2.17;;
24485;SDS011;13449;49.374;8.584;2023-07-09T04:42:39;13.00;;;3.42;;
24485;SDS011;13449;49.374;8.584;2023-07-09T04:45:09;6.65;;;2.20;;
24485;SDS011;13449;49.374;8.584;2023-07-09T04:47:37;9.40;;;3.58;;
24485;SDS011;13449;49.374;8.584;2023-07-09T04:50:05;4.63;;;2.88;;
24485;SDS011;13449;49.374;8.584;2023-07-09T04:52:36;5.43;;;2.67;;
24485;SDS011;13449;49.374;8.584;2023-07-09T04:55:03;5.22;;;2.90;;
24485;SDS011;13449;49.374;8.584;2023-07-09T04:57:30;8.43;;;2.60;;
24485;SDS011;13449;49.374;8.584;2023-07-09T04:59:56;5.32;;;3.30;;
24485;SDS011;13449;49.374;8.584;2023-07-09T05:02:23;7.95;;;2.85;;
24485;SDS011;13449;49.374;8.584;2023-07-09T05:04:50;2.92;;;2.10;;
24485;SDS011;13449;49.374;8.584;2023-07-09T05:07:17;4.85;;;2.38;;
24485;SDS011;13449;49.374;8.584;2023-07-09T05:09:46;5.55;;;2.70;;
24485;SDS011;13449;49.374;8.584;2023-07-09T05:12:13;4.30;;;2.67;;
24485;SDS011;13449;49.374;8.584;2023-07-09T05:14:40;7.13;;;3.75;;
24485;SDS011;13449;49.374;8.584;2023-07-09T05:17:07;5.28;;;3.30;;
24485;SDS011;13449;49.374;8.584;2023-07-09T05:19:35;9.25;;;3.20;;
24485;SDS011;13449;49.374;8.584;2023-07-09T05:22:03;6.03;;;2.83;;
24485;SDS011;13449;49.374;8.584;2023-07-09T05:24:29;9.23;;;3.67;;
24485;SDS011;13449;49.374;8.584;2023-07-09T05:26:59;10.07;;;3.03;;
24485;SDS011;13449;49.374;8.584;2023-07-09T05:31:54;6.72;;;3.35;;
24485;SDS011;13449;49.374;8.584;2023-07-09T05:34:21;5.35;;;3.38;;
24485;SDS011;13449;49.374;8.584;2023-07-09T05:36:50;5.22;;;2.67;;
24485;SDS011;13449;49.374;8.584;2023-07-09T05:39:16;3.35;;;2.58;;
24485;SDS011;13449;49.374;8.584;2023-07-09T05:41:43;7.63;;;3.50;;
24485;SDS011;13449;49.374;8.584;2023-07-09T05:44:10;3.58;;;2.58;;
24485;SDS011;13449;49.374;8.584;2023-07-09T05:46:36;3.53;;;2.65;;
24485;SDS011;13449;49.374;8.584;2023-07-09T05:49:04;6.32;;;3.03;;
24485;SDS011;13449;49.374;8.584;2023-07-09T05:51:32;11.48;;;3.85;;
24485;SDS011;13449;49.374;8.584;2023-07-09T05:53:59;10.23;;;4.40;;
24485;SDS011;13449;49.374;8.584;2023-07-09T05:56:28;5.65;;;3.53;;
24485;SDS011;13449;49.374;8.584;2023-07-09T05:58:55;5.35;;;2.45;;
24485;SDS011;13449;49.374;8.584;2023-07-09T06:01:23;5.65;;;4.00;;
24485;SDS011;13449;49.374;8.584;2023-07-09T06:03:50;8.82;;;3.35;;
24485;SDS011;13449;49.374;8.584;2023-07-09T06:06:17;9.18;;;3.35;;
24485;SDS011;13449;49.374;8.584;2023-07-09T06:08:43;5.55;;;3.50;;
24485;SDS011;13449;49.374;8.584;2023-07-09T06:11:12;8.00;;;3.38;;
24485;SDS011;13449;49.374;8.584;2023-07-09T06:13:39;5.97;;;3.40;;
24485;SDS011;13449;49.374;8.584;2023-07-09T06:16:05;6.65;;;3.40;;
24485;SDS011;13449;49.374;8.584;2023-07-09T06:18:35;4.85;;;3.03;;
24485;SDS011;13449;49.374;8.584;2023-07-09T06:21:02;9.45;;;3.67;;
24485;SDS011;13449;49.374;8.584;2023-07-09T06:23:29;6.07;;;3.60;;
24485;SDS011;13449;49.374;8.584;2023-07-09T06:25:56;6.70;;;3.35;;
24485;SDS011;13449;49.374;8.584;2023-07-09T06:28:24;14.55;;;4.05;;
24485;SDS011;13449;49.374;8.584;2023-07-09T06:30:52;5.43;;;2.97;;
24485;SDS011;13449;49.374;8.584;2023-07-09T06:33:19;6.28;;;2.92;;
24485;SDS011;13449;49.374;8.584;2023-07-09T06:35:49;11.63;;;4.03;;
24485;SDS011;13449;49.374;8.584;2023-07-09T06:38:19;6.78;;;3.40;;
24485;SDS011;13449;49.374;8.584;2023-07-09T06:40:54;10.30;;;4.82;;
24485;SDS011;13449;49.374;8.584;2023-07-09T06:43:21;6.55;;;3.22;;
24485;SDS011;13449;49.374;8.584;2023-07-09T06:45:58;14.35;;;3.17;;
24485;SDS011;13449;49.374;8.584;2023-07-09T06:48:26;7.30;;;3.10;;
24485;SDS011;13449;49.374;8.584;2023-07-09T06:50:54;9.88;;;4.13;;
24485;SDS011;13449;49.374;8.584;2023-07-09T06:53:27;5.10;;;3.05;;
24485;SDS011;13449;49.374;8.584;2023-07-09T06:55:56;5.43;;;3.30;;
24485;SDS011;13449;49.374;8.584;2023-07-09T06:58:26;5.63;;;3.10;;
24485;SDS011;13449;49.374;8.584;2023-07-09T07:00:54;4.60;;;3.42;;
24485;SDS011;13449;49.374;8.584;2023-07-09T07:03:25;5.18;;;3.38;;
24485;SDS011;13449;49.374;8.584;2023-07-09T07:05:52;6.25;;;2.97;;
24485;SDS011;13449;49.374;8.584;2023-07-09T07:08:24;6.13;;;3.23;;
24485;SDS011;13449;49.374;8.584;2023-07-09T07:10:59;4.97;;;2.95;;
24485;SDS011;13449;49.374;8.584;2023-07-09T07:13:29;4.00;;;2.67;;
24485;SDS011;13449;49.374;8.584;2023-07-09T07:15:56;10.32;;;2.95;;
24485;SDS011;13449;49.374;8.584;2023-07-09T07:18:23;9.02;;;2.75;;
24485;SDS011;13449;49.374;8.584;2023-07-09T07:20:49;12.93;;;2.65;;
24485;SDS011;13449;49.374;8.584;2023-07-09T07:23:17;5.53;;;2.65;;
24485;SDS011;13449;49.374;8.584;2023-07-09T07:25:45;5.35;;;2.90;;
24485;SDS011;13449;49.374;8.584;2023-07-09T07:28:12;8.98;;;2.90;;
24485;SDS011;13449;49.374;8.584;2023-07-09T07:30:39;9.02;;;3.17;;
24485;SDS011;13449;49.374;8.584;2023-07-09T07:33:08;9.23;;;3.40;;
24485;SDS011;13449;49.374;8.584;2023-07-09T07:35:34;8.23;;;3.15;;
24485;SDS011;13449;49.374;8.584;2023-07-09T07:38:09;7.32;;;3.30;;
24485;SDS011;13449;49.374;8.584;2023-07-09T07:40:36;8.45;;;2.97;;
24485;SDS011;13449;49.374;8.584;2023-07-09T07:43:02;6.32;;;3.05;;
24485;SDS011;13449;49.374;8.584;2023-07-09T07:45:31;7.88;;;3.00;;
24485;SDS011;13449;49.374;8.584;2023-07-09T07:47:57;4.38;;;3.15;;
24485;SDS011;13449;49.374;8.584;2023-07-09T07:50:24;7.10;;;2.85;;
24485;SDS011;13449;49.374;8.584;2023-07-09T07:52:53;4.82;;;2.80;;
24485;SDS011;13449;49.374;8.584;2023-07-09T07:55:19;9.82;;;3.05;;
24485;SDS011;13449;49.374;8.584;2023-07-09T07:57:46;7.03;;;2.92;;
24485;SDS011;13449;49.374;8.584;2023-07-09T08:00:15;7.45;;;3.95;;
24485;SDS011;13449;49.374;8.584;2023-07-09T08:02:42;4.40;;;2.20;;
24485;SDS011;13449;49.374;8.584;2023-07-09T08:05:09;4.85;;;2.30;;
24485;SDS011;13449;49.374;8.584;2023-07-09T08:07:35;11.77;;;2.78;;
24485;SDS011;13449;49.374;8.584;2023-07-09T08:10:02;6.32;;;2.40;;
24485;SDS011;13449;49.374;8.584;2023-07-09T08:12:31;7.22;;;2.47;;
24485;SDS011;13449;49.374;8.584;2023-07-09T08:14:58;5.95;;;2.97;;
24485;SDS011;13449;49.374;8.584;2023-07-09T08:17:24;8.20;;;2.40;;
24485;SDS011;13449;49.374;8.584;2023-07-09T08:19:52;4.68;;;2.53;;
24485;SDS011;13449;49.374;8.584;2023-07-09T08:22:20;8.73;;;2.45;;
24485;SDS011;13449;49.374;8.584;2023-07-09T08:24:48;3.33;;;2.50;;
24485;SDS011;13449;49.374;8.584;2023-07-09T08:27:15;4.03;;;2.63;;
24485;SDS011;13449;49.374;8.584;2023-07-09T08:29:41;8.57;;;2.70;;
24485;SDS011;13449;49.374;8.584;2023-07-09T08:32:08;4.78;;;2.08;;
24485;SDS011;13449;49.374;8.584;2023-07-09T08:34:38;5.68;;;2.92;;
24485;SDS011;13449;49.374;8.584;2023-07-09T08:37:25;4.65;;;3.42;;
24485;SDS011;13449;49.374;8.584;2023-07-09T08:39:52;4.68;;;3.15;;
24485;SDS011;13449;49.374;8.584;2023-07-09T08:42:21;7.90;;;3.00;;
24485;SDS011;13449;49.374;8.584;2023-07-09T08:47:41;6.03;;;2.58;;
24485;SDS011;13449;49.374;8.584;2023-07-09T08:50:19;5.85;;;2.80;;
24485;SDS011;13449;49.374;8.584;2023-07-09T08:52:51;5.03;;;2.92;;
24485;SDS011;13449;49.374;8.584;2023-07-09T08:58:04;6.15;;;2.63;;
24485;SDS011;13449;49.374;8.584;2023-07-09T09:00:46;12.10;;;3.00;;
24485;SDS011;13449;49.374;8.584;2023-07-09T09:05:55;7.50;;;2.83;;
24485;SDS011;13449;49.374;8.584;2023-07-09T09:14:19;4.25;;;2.50;;
24485;SDS011;13449;49.374;8.584;2023-07-09T09:16:53;5.55;;;2.53;;
24485;SDS011;13449;49.374;8.584;2023-07-09T09:21:56;9.57;;;2.65;;
24485;SDS011;13449;49.374;8.584;2023-07-09T09:24:34;4.65;;;2.60;;
24485;SDS011;13449;49.374;8.584;2023-07-09T09:27:02;8.38;;;3.03;;
24485;SDS011;13449;49.374;8.584;2023-07-09T09:29:29;6.35;;;2.63;;
24485;SDS011;13449;49.374;8.584;2023-07-09T09:31:56;5.30;;;2.53;;
24485;SDS011;13449;49.374;8.584;2023-07-09T09:34:25;8.20;;;3.75;;
24485;SDS011;13449;49.374;8.584;2023-07-09T09:36:55;3.73;;;2.60;;
24485;SDS011;13449;49.374;8.584;2023-07-09T09:39:24;6.55;;;2.47;;
24485;SDS011;13449;49.374;8.584;2023-07-09T09:41:54;4.30;;;2.67;;
24485;SDS011;13449;49.374;8.584;2023-07-09T09:44:26;4.07;;;2.45;;
24485;SDS011;13449;49.374;8.584;2023-07-09T09:46:57;3.88;;;2.95;;
24485;SDS011;13449;49.374;8.584;2023-07-09T09:49:26;9.63;;;2.70;;
24485;SDS011;13449;49.374;8.584;2023-07-09T09:51:53;5.30;;;2.67;;
24485;SDS011;13449;49.374;8.584;2023-07-09T09:54:27;4.20;;;3.05;;
24485;SDS011;13449;49.374;8.584;2023-07-09T09:56:57;6.65;;;2.47;;
24485;SDS011;13449;49.374;8.584;2023-07-09T09:59:25;4.05;;;2.63;;
24485;SDS011;13449;49.374;8.584;2023-07-09T10:01:57;7.97;;;2.38;;
24485;SDS011;13449;49.374;8.584;2023-07-09T10:04:27;7.47;;;3.00;;
24485;SDS011;13449;49.374;8.584;2023-07-09T10:06:59;4.47;;;2.92;;
24485;SDS011;13449;49.374;8.584;2023-07-09T10:09:37;3.65;;;2.28;;
24485;SDS011;13449;49.374;8.584;2023-07-09T10:14:51;7.05;;;2.35;;
24485;SDS011;13449;49.374;8.584;2023-07-09T10:17:35;12.48;;;2.50;;
24485;SDS011;13449;49.374;8.584;2023-07-09T10:20:07;4.20;;;2.13;;
24485;SDS011;13449;49.374;8.584;2023-07-09T10:39:51;2.60;;;2.30;;
24485;SDS011;13449;49.374;8.584;2023-07-09T10:42:30;2.63;;;2.20;;
24485;SDS011;13449;49.374;8.584;2023-07-09T10:48:01;6.28;;;2.40;;
24485;SDS011;13449;49.374;8.584;2023-07-09T10:50:34;2.67;;;1.98;;
24485;SDS011;13449;49.374;8.584;2023-07-09T10:56:22;3.22;;;2.22;;
24485;SDS011;13449;49.374;8.584;2023-07-09T11:01:25;3.65;;;2.50;;
24485;SDS011;13449;49.374;8.584;2023-07-09T11:04:02;5.35;;;2.33;;
24485;SDS011;13449;49.374;8.584;2023-07-09T11:06:42;6.75;;;2.20;;
24485;SDS011;13449;49.374;8.584;2023-07-09T11:09:22;9.68;;;2.70;;
24485;SDS011;13449;49.374;8.584;2023-07-09T11:11:53;10.60;;;2.25;;
24485;SDS011;13449;49.374;8.584;2023-07-09T11:14:36;7.28;;;3.45;;
24485;SDS011;13449;49.374;8.584;2023-07-09T11:17:15;7.07;;;2.50;;
24485;SDS011;13449;49.374;8.584;2023-07-09T11:19:45;5.32;;;1.90;;
24485;SDS011;13449;49.374;8.584;2023-07-09T11:22:23;4.88;;;1.83;;
24485;SDS011;13449;49.374;8.584;2023-07-09T11:24:53;2.67;;;1.73;;
24485;SDS011;13449;49.374;8.584;2023-07-09T11:27:33;5.88;;;1.88;;
24485;SDS011;13449;49.374;8.584;2023-07-09T11:30:26;5.70;;;2.25;;
24485;SDS011;13449;49.374;8.584;2023-07-09T11:32:59;5.03;;;2.10;;
24485;SDS011;13449;49.374;8.584;2023-07-09T11:35:51;3.53;;;2.05;;
24485;SDS011;13449;49.374;8.584;2023-07-09T11:38:20;4.03;;;2.05;;
24485;SDS011;13449;49.374;8.584;2023-07-09T11:40:52;6.80;;;2.05;;
24485;SDS011;13449;49.374;8.584;2023-07-09T11:43:27;4.40;;;2.38;;
24485;SDS011;13449;49.374;8.584;2023-07-09T11:45:54;3.25;;;2.33;;
24485;SDS011;13449;49.374;8.584;2023-07-09T11:48:25;5.03;;;2.03;;
24485;SDS011;13449;49.374;8.584;2023-07-09T11:50:55;4.10;;;1.65;;
24485;SDS011;13449;49.374;8.584;2023-07-09T11:53:34;7.60;;;1.90;;
24485;SDS011;13449;49.374;8.584;2023-07-09T11:56:07;11.98;;;6.78;;
24485;SDS011;13449;49.374;8.584;2023-07-09T11:58:34;11.18;;;2.33;;
24485;SDS011;13449;49.374;8.584;2023-07-09T12:01:14;5.15;;;1.70;;
24485;SDS011;13449;49.374;8.584;2023-07-09T12:03:46;5.88;;;2.00;;
24485;SDS011;13449;49.374;8.584;2023-07-09T12:06:21;5.50;;;1.90;;
24485;SDS011;13449;49.374;8.584;2023-07-09T12:08:50;5.05;;;1.88;;
24485;SDS011;13449;49.374;8.584;2023-07-09T12:11:25;12.32;;;2.55;;
24485;SDS011;13449;49.374;8.584;2023-07-09T12:14:03;2.70;;;1.77;;
24485;SDS011;13449;49.374;8.584;2023-07-09T12:16:36;3.38;;;2.25;;
24485;SDS011;13449;49.374;8.584;2023-07-09T12:19:05;5.95;;;2.08;;
24485;SDS011;13449;49.374;8.584;2023-07-09T12:21:34;7.60;;;2.35;;
24485;SDS011;13449;49.374;8.584;2023-07-09T12:24:13;4.43;;;1.98;;
24485;SDS011;13449;49.374;8.584;2023-07-09T12:26:56;3.80;;;2.17;;
24485;SDS011;13449;49.374;8.584;2023-07-09T12:29:25;5.30;;;2.20;;
24485;SDS011;13449;49.374;8.584;2023-07-09T12:31:58;4.70;;;2.05;;
24485;SDS011;13449;49.374;8.584;2023-07-09T12:34:30;2.28;;;1.77;;
24485;SDS011;13449;49.374;8.584;2023-07-09T12:36:57;5.28;;;1.80;;
24485;SDS011;13449;49.374;8.584;2023-07-09T12:39:25;5.88;;;2.25;;
24485;SDS011;13449;49.374;8.584;2023-07-09T12:41:58;6.97;;;1.95;;
24485;SDS011;13449;49.374;8.584;2023-07-09T12:44:27;6.53;;;2.30;;
24485;SDS011;13449;49.374;8.584;2023-07-09T12:47:02;4.80;;;1.80;;
24485;SDS011;13449;49.374;8.584;2023-07-09T12:49:30;7.38;;;2.22;;
24485;SDS011;13449;49.374;8.584;2023-07-09T12:52:09;6.10;;;1.77;;
24485;SDS011;13449;49.374;8.584;2023-07-09T12:54:39;5.30;;;1.48;;
24485;SDS011;13449;49.374;8.584;2023-07-09T12:57:13;6.82;;;1.95;;
24485;SDS011;13449;49.374;8.584;2023-07-09T12:59:44;7.60;;;2.10;;
24485;SDS011;13449;49.374;8.584;2023-07-09T13:04:49;3.22;;;2.00;;
24485;SDS011;13449;49.374;8.584;2023-07-09T13:07:25;9.73;;;1.92;;
24485;SDS011;13449;49.374;8.584;2023-07-09T13:09:56;8.35;;;1.90;;
24485;SDS011;13449;49.374;8.584;2023-07-09T13:12:30;5.55;;;2.25;;
24485;SDS011;13449;49.374;8.584;2023-07-09T13:14:57;4.38;;;2.10;;
24485;SDS011;13449;49.374;8.584;2023-07-09T13:17:30;2.38;;;1.70;;
24485;SDS011;13449;49.374;8.584;2023-07-09T13:19:57;8.05;;;1.85;;
24485;SDS011;13449;49.374;8.584;2023-07-09T13:22:28;2.50;;;1.60;;
24485;SDS011;13449;49.374;8.584;2023-07-09T13:24:55;6.53;;;1.73;;
24485;SDS011;13449;49.374;8.584;2023-07-09T13:27:22;8.35;;;2.17;;
24485;SDS011;13449;49.374;8.584;2023-07-09T13:29:49;3.90;;;2.17;;
24485;SDS011;13449;49.374;8.584;2023-07-09T13:32:17;6.35;;;2.55;;
24485;SDS011;13449;49.374;8.584;2023-07-09T13:34:46;9.02;;;2.15;;
24485;SDS011;13449;49.374;8.584;2023-07-09T13:37:13;6.93;;;2.47;;
24485;SDS011;13449;49.374;8.584;2023-07-09T13:39:41;5.20;;;1.83;;
24485;SDS011;13449;49.374;8.584;2023-07-09T13:42:12;5.75;;;2.03;;
24485;SDS011;13449;49.374;8.584;2023-07-09T13:44:41;14.25;;;2.15;;
24485;SDS011;13449;49.374;8.584;2023-07-09T13:47:16;3.25;;;1.60;;
24485;SDS011;13449;49.374;8.584;2023-07-09T13:49:45;3.35;;;2.17;;
24485;SDS011;13449;49.374;8.584;2023-07-09T13:52:17;5.20;;;1.88;;
24485;SDS011;13449;49.374;8.584;2023-07-09T13:54:49;8.32;;;2.33;;
24485;SDS011;13449;49.374;8.584;2023-07-09T13:57:20;8.15;;;2.10;;
24485;SDS011;13449;49.374;8.584;2023-07-09T13:59:48;6.72;;;2.58;;
24485;SDS011;13449;49.374;8.584;2023-07-09T14:02:25;4.55;;;2.25;;
24485;SDS011;13449;49.374;8.584;2023-07-09T14:04:59;5.95;;;2.00;;
24485;SDS011;13449;49.374;8.584;2023-07-09T14:07:29;3.63;;;2.45;;
24485;SDS011;13449;49.374;8.584;2023-07-09T14:12:26;8.48;;;4.68;;
24485;SDS011;13449;49.374;8.584;2023-07-09T14:14:55;7.93;;;2.15;;
24485;SDS011;13449;49.374;8.584;2023-07-09T14:17:25;5.72;;;2.08;;
24485;SDS011;13449;49.374;8.584;2023-07-09T14:19:55;4.53;;;1.80;;
24485;SDS011;13449;49.374;8.584;2023-07-09T14:22:43;4.03;;;2.22;;
24485;SDS011;13449;49.374;8.584;2023-07-09T14:25:20;4.25;;;2.15;;
24485;SDS011;13449;49.374;8.584;2023-07-09T14:27:51;9.88;;;3.15;;
24485;SDS011;13449;49.374;8.584;2023-07-09T14:30:21;4.43;;;2.45;;
24485;SDS011;13449;49.374;8.584;2023-07-09T14:32:52;2.67;;;1.58;;
24485;SDS011;13449;49.374;8.584;2023-07-09T14:37:48;4.65;;;2.42;;
24485;SDS011;13449;49.374;8.584;2023-07-09T14:40:17;5.38;;;2.00;;
24485;SDS011;13449;49.374;8.584;2023-07-09T14:42:46;6.25;;;2.33;;
24485;SDS011;13449;49.374;8.584;2023-07-09T14:45:19;4.93;;;2.92;;
24485;SDS011;13449;49.374;8.584;2023-07-09T14:47:49;9.13;;;2.33;;
24485;SDS011;13449;49.374;8.584;2023-07-09T14:50:16;4.40;;;2.47;;
24485;SDS011;13449;49.374;8.584;2023-07-09T14:52:50;2.53;;;2.15;;
24485;SDS011;13449;49.374;8.584;2023-07-09T14:55:20;9.40;;;3.25;;
24485;SDS011;13449;49.374;8.584;2023-07-09T14:57:50;3.85;;;2.47;;
24485;SDS011;13449;49.374;8.584;2023-07-09T15:00:18;5.22;;;1.88;;
24485;SDS011;13449;49.374;8.584;2023-07-09T15:02:49;6.40;;;1.95;;
24485;SDS011;13449;49.374;8.584;2023-07-09T15:05:19;5.75;;;2.42;;
24485;SDS011;13449;49.374;8.584;2023-07-09T15:07:47;3.83;;;2.47;;
24485;SDS011;13449;49.374;8.584;2023-07-09T15:10:25;9.07;;;2.55;;
24485;SDS011;13449;49.374;8.584;2023-07-09T15:12:55;6.07;;;2.38;;
24485;SDS011;13449;49.374;8.584;2023-07-09T15:17:53;7.40;;;2.47;;
24485;SDS011;13449;49.374;8.584;2023-07-09T15:20:25;5.78;;;2.30;;
24485;SDS011;13449;49.374;8.584;2023-07-09T15:22:57;8.25;;;2.70;;
24485;SDS011;13449;49.374;8.584;2023-07-09T15:25:27;7.95;;;4.10;;
24485;SDS011;13449;49.374;8.584;2023-07-09T15:27:54;8.43;;;3.25;;
24485;SDS011;13449;49.374;8.584;2023-07-09T15:30:23;17.90;;;2.53;;
24485;SDS011;13449;49.374;8.584;2023-07-09T15:32:55;8.20;;;2.63;;
24485;SDS011;13449;49.374;8.584;2023-07-09T15:35:28;4.07;;;2.15;;
24485;SDS011;13449;49.374;8.584;2023-07-09T15:38:04;4.00;;;2.20;;
24485;SDS011;13449;49.374;8.584;2023-07-09T15:40:48;4.47;;;1.98;;
24485;SDS011;13449;49.374;8.584;2023-07-09T15:43:18;5.75;;;2.58;;
24485;SDS011;13449;49.374;8.584;2023-07-09T15:45:45;8.15;;;3.08;;
24485;SDS011;13449;49.374;8.584;2023-07-09T15:48:20;7.78;;;2.13;;
24485;SDS011;13449;49.374;8.584;2023-07-09T15:50:51;4.53;;;2.55;;
24485;SDS011;13449;49.374;8.584;2023-07-09T15:53:19;5.32;;;2.30;;
24485;SDS011;13449;49.374;8.584;2023-07-09T15:55:48;8.90;;;3.00;;
24485;SDS011;13449;49.374;8.584;2023-07-09T16:00:58;8.77;;;2.45;;
24485;SDS011;13449;49.374;8.584;2023-07-09T16:03:24;7.45;;;2.50;;
24485;SDS011;13449;49.374;8.584;2023-07-09T16:05:55;4.05;;;2.05;;
24485;SDS011;13449;49.374;8.584;2023-07-09T16:08:22;4.97;;;2.65;;
24485;SDS011;13449;49.374;8.584;2023-07-09T16:10:49;7.20;;;2.50;;
24485;SDS011;13449;49.374;8.584;2023-07-09T16:13:23;3.83;;;2.45;;
24485;SDS011;13449;49.374;8.584;2023-07-09T16:15:56;4.55;;;3.40;;